createdAt,value
2023-05-15T00:01:58.215Z,36.90
2023-05-15T00:04:25.515Z,35.67
2023-05-15T00:06:53.338Z,38.17
2023-05-15T00:09:20.387Z,37.92
2023-05-15T00:11:48.308Z,37.35
2023-05-15T00:14:15.627Z,37.30
2023-05-15T00:16:42.876Z,35.55
2023-05-15T00:19:10.097Z,34.88
2023-05-15T00:21:38.169Z,35.03
2023-05-15T00:24:05.291Z,37.63
2023-05-15T00:26:32.247Z,35.65
2023-05-15T00:28:59.199Z,35.83
2023-05-15T00:31:26.341Z,35.88
2023-05-15T00:33:53.356Z,35.33
2023-05-15T00:36:22.069Z,36.90
2023-05-15T00:38:51.121Z,35.38
2023-05-15T00:41:18.939Z,35.40
2023-05-15T00:43:46.803Z,35.00
2023-05-15T00:46:14.303Z,34.92
2023-05-15T00:48:44.324Z,36.67
2023-05-15T00:51:12.140Z,35.45
2023-05-15T00:53:39.925Z,35.67
2023-05-15T00:56:09.378Z,34.90
2023-05-15T00:58:38.229Z,34.83
2023-05-15T01:01:08.308Z,33.53
2023-05-15T01:03:36.790Z,34.70
2023-05-15T01:06:03.985Z,33.13
2023-05-15T01:08:38.127Z,34.00
2023-05-15T01:11:08.286Z,32.53
2023-05-15T01:13:35.286Z,31.80
2023-05-15T01:16:02.452Z,31.33
2023-05-15T01:18:32.597Z,31.27
2023-05-15T01:21:03.123Z,32.67
2023-05-15T01:24:02.402Z,30.85
2023-05-15T01:27:01.518Z,32.35
2023-05-15T01:29:40.999Z,32.00
2023-05-15T01:32:19.382Z,29.95
2023-05-15T01:35:02.813Z,29.55
2023-05-15T01:37:33.895Z,29.92
2023-05-15T01:40:03.089Z,28.30
2023-05-15T01:42:34.966Z,28.30
2023-05-15T01:45:08.237Z,27.42
2023-05-15T01:47:45.917Z,28.88
2023-05-15T01:50:16.308Z,28.77
2023-05-15T01:52:56.544Z,29.05
2023-05-15T01:55:27.601Z,28.10
2023-05-15T01:57:59.425Z,26.88
2023-05-15T02:00:26.525Z,26.95
2023-05-15T02:02:54.516Z,27.70
2023-05-15T02:05:23.107Z,27.67
2023-05-15T02:07:50.640Z,26.58
2023-05-15T02:10:18.589Z,26.88
2023-05-15T02:12:50.432Z,25.63
2023-05-15T02:15:18.988Z,26.27
2023-05-15T02:17:47.027Z,26.05
2023-05-15T02:20:14.469Z,24.33
2023-05-15T02:22:41.437Z,26.38
2023-05-15T02:25:08.856Z,25.02
2023-05-15T02:27:46.899Z,24.45
2023-05-15T02:30:31.244Z,24.40
2023-05-15T02:33:19.728Z,23.67
2023-05-15T02:36:05.087Z,24.67
2023-05-15T02:38:56.098Z,25.17
2023-05-15T02:41:23.822Z,23.85
2023-05-15T02:43:52.869Z,24.33
2023-05-15T02:46:21.720Z,26.25
2023-05-15T02:48:48.901Z,24.80
2023-05-15T02:51:16.172Z,23.88
2023-05-15T02:53:43.572Z,26.08
2023-05-15T02:56:10.638Z,24.77
2023-05-15T02:58:38.713Z,25.67
2023-05-15T03:01:06.265Z,26.23
2023-05-15T03:03:33.462Z,25.58
2023-05-15T03:06:03.461Z,25.40
2023-05-15T03:08:30.434Z,25.98
2023-05-15T03:10:58.166Z,25.83
2023-05-15T03:13:25.251Z,25.58
2023-05-15T03:15:53.413Z,26.05
2023-05-15T03:18:20.578Z,25.63
2023-05-15T03:20:49.255Z,28.40
2023-05-15T03:23:16.337Z,26.38
2023-05-15T03:25:43.588Z,25.15
2023-05-15T03:28:10.691Z,25.63
2023-05-15T03:30:37.696Z,27.00
2023-05-15T03:33:04.862Z,26.75
2023-05-15T03:35:32.513Z,25.25
2023-05-15T03:37:59.577Z,24.95
2023-05-15T03:40:26.678Z,23.10
2023-05-15T03:42:53.770Z,26.42
2023-05-15T03:45:21.453Z,26.17
2023-05-15T03:47:49.344Z,24.90
2023-05-15T03:50:16.788Z,25.20
2023-05-15T03:52:43.829Z,26.10
2023-05-15T03:55:11.112Z,25.27
2023-05-15T03:57:41.640Z,26.75
2023-05-15T04:00:15.930Z,26.70
2023-05-15T04:02:44.291Z,25.65
2023-05-15T04:05:11.458Z,24.23
2023-05-15T04:07:39.118Z,24.30
2023-05-15T04:10:06.847Z,24.63
2023-05-15T04:12:35.499Z,25.50
2023-05-15T04:15:24.528Z,24.77
2023-05-15T04:17:53.847Z,24.40
2023-05-15T04:20:22.857Z,25.98
2023-05-15T04:22:50.621Z,24.83
2023-05-15T04:25:18.177Z,21.08
2023-05-15T04:27:46.015Z,24.05
2023-05-15T04:30:13.780Z,24.05
2023-05-15T04:32:41.202Z,23.77
2023-05-15T04:35:10.606Z,23.23
2023-05-15T04:37:38.546Z,23.00
2023-05-15T04:40:07.520Z,23.15
2023-05-15T04:42:35.674Z,22.30
2023-05-15T04:45:03.436Z,23.20
2023-05-15T04:47:30.472Z,24.58
2023-05-15T04:49:57.454Z,23.45
2023-05-15T04:52:24.419Z,24.27
2023-05-15T04:54:53.022Z,23.25
2023-05-15T04:57:20.068Z,23.90
2023-05-15T04:59:47.117Z,22.00
2023-05-15T05:02:14.070Z,23.95
2023-05-15T05:04:45.698Z,23.10
2023-05-15T05:07:12.762Z,22.77
2023-05-15T05:09:40.544Z,22.17
2023-05-15T05:12:11.061Z,24.38
2023-05-15T05:14:40.472Z,21.83
2023-05-15T05:17:07.725Z,23.83
2023-05-15T05:19:34.736Z,23.70
2023-05-15T05:22:04.775Z,23.20
2023-05-15T05:24:32.395Z,24.05
2023-05-15T05:26:59.359Z,24.30
2023-05-15T05:29:26.538Z,24.00
2023-05-15T05:31:53.716Z,23.17
2023-05-15T05:34:21.059Z,20.90
2023-05-15T05:36:48.375Z,25.27
2023-05-15T05:39:19.059Z,23.70
2023-05-15T05:41:46.054Z,24.92
2023-05-15T05:44:13.007Z,23.38
2023-05-15T05:46:39.985Z,22.30
2023-05-15T05:49:06.961Z,22.88
2023-05-15T05:51:37.042Z,21.15
2023-05-15T05:54:04.080Z,25.83
2023-05-15T05:56:31.439Z,22.80
2023-05-15T05:58:59.616Z,23.25
2023-05-15T06:01:27.680Z,25.70
2023-05-15T06:03:55.973Z,23.35
2023-05-15T06:06:23.446Z,25.67
2023-05-15T06:08:50.549Z,22.83
2023-05-15T06:11:17.787Z,21.17
2023-05-15T06:13:44.860Z,25.35
2023-05-15T06:16:11.942Z,23.17
2023-05-15T06:18:39.018Z,22.60
2023-05-15T06:21:06.230Z,21.10
2023-05-15T06:23:33.323Z,23.85
2023-05-15T06:26:01.616Z,25.77
2023-05-15T06:28:28.679Z,25.20
2023-05-15T06:30:55.826Z,25.15
2023-05-15T06:33:23.019Z,25.45
2023-05-15T06:35:50.063Z,24.10
2023-05-15T06:38:17.093Z,25.25
2023-05-15T06:40:44.125Z,25.73
2023-05-15T06:43:11.180Z,23.35
2023-05-15T06:45:38.333Z,24.73
2023-05-15T06:48:05.583Z,24.40
2023-05-15T06:50:32.591Z,24.88
2023-05-15T06:52:59.551Z,26.45
2023-05-15T06:55:26.886Z,27.20
2023-05-15T06:57:54.000Z,24.35
2023-05-15T07:00:21.186Z,23.75
2023-05-15T07:02:48.117Z,26.77
2023-05-15T07:05:15.365Z,25.95
2023-05-15T07:07:42.956Z,26.27
2023-05-15T07:10:18.944Z,26.25
2023-05-15T07:12:46.171Z,24.63
2023-05-15T07:15:13.394Z,24.83
2023-05-15T07:17:40.493Z,26.05
2023-05-15T07:20:07.993Z,26.48
2023-05-15T07:22:41.560Z,27.38
2023-05-15T07:25:11.882Z,24.85
2023-05-15T07:27:38.853Z,24.55
2023-05-15T07:30:06.688Z,25.45
2023-05-15T07:32:34.064Z,25.25
2023-05-15T07:35:01.120Z,23.63
2023-05-15T07:37:28.120Z,25.23
2023-05-15T07:39:56.534Z,24.77
2023-05-15T07:42:23.635Z,27.42
2023-05-15T07:44:50.843Z,24.05
2023-05-15T07:47:17.935Z,27.38
2023-05-15T07:49:44.884Z,26.35
2023-05-15T07:52:11.863Z,25.55
2023-05-15T07:54:41.689Z,25.92
2023-05-15T07:57:09.436Z,25.85
2023-05-15T07:59:36.784Z,22.15
2023-05-15T08:02:03.963Z,28.00
2023-05-15T08:04:31.058Z,24.52
2023-05-15T08:06:58.157Z,26.58
2023-05-15T08:09:25.170Z,24.50
2023-05-15T08:11:52.138Z,25.33
2023-05-15T08:14:19.132Z,26.00
2023-05-15T08:16:46.047Z,23.95
2023-05-15T08:19:13.401Z,23.55
2023-05-15T08:21:40.957Z,26.27
2023-05-15T08:24:08.074Z,25.05
2023-05-15T08:26:35.031Z,24.38
2023-05-15T08:29:02.102Z,24.88
2023-05-15T08:31:29.116Z,25.25
2023-05-15T08:33:56.266Z,26.67
2023-05-15T08:36:23.434Z,27.88
2023-05-15T08:38:50.489Z,24.23
2023-05-15T08:41:40.695Z,27.98
2023-05-15T08:44:11.141Z,25.58
2023-05-15T08:46:38.973Z,28.42
2023-05-15T08:49:15.805Z,26.08
2023-05-15T08:51:43.191Z,28.55
2023-05-15T08:54:11.639Z,22.05
2023-05-15T08:56:39.062Z,27.88
2023-05-15T08:59:06.360Z,26.80
2023-05-15T09:01:34.236Z,23.40
2023-05-15T09:04:01.411Z,25.45
2023-05-15T09:06:28.717Z,26.98
2023-05-15T09:08:57.021Z,23.77
2023-05-15T09:11:27.272Z,23.15
2023-05-15T09:13:58.771Z,17.10
2023-05-15T09:16:26.121Z,17.95
2023-05-15T09:18:54.013Z,20.05
2023-05-15T09:21:29.607Z,21.38
2023-05-15T09:24:19.622Z,17.02
2023-05-15T09:26:48.143Z,18.00
2023-05-15T09:29:18.843Z,17.77
2023-05-15T09:31:49.581Z,23.00
2023-05-15T09:34:16.959Z,17.73
2023-05-15T09:36:47.145Z,15.82
2023-05-15T09:39:14.203Z,20.35
2023-05-15T09:41:44.125Z,20.85
2023-05-15T09:44:25.978Z,19.58
2023-05-15T09:46:53.302Z,21.85
2023-05-15T09:49:20.812Z,20.23
2023-05-15T09:51:48.758Z,22.42
2023-05-15T09:54:18.197Z,20.52
2023-05-15T09:56:47.227Z,21.80
2023-05-15T09:59:16.336Z,20.55
2023-05-15T10:01:47.775Z,23.13
2023-05-15T10:04:15.167Z,22.42
2023-05-15T10:06:44.102Z,14.10
2023-05-15T10:09:11.620Z,22.02
2023-05-15T10:11:44.672Z,20.88
2023-05-15T10:14:13.605Z,22.52
2023-05-15T10:16:41.592Z,19.70
2023-05-15T10:19:13.414Z,21.80
2023-05-15T10:21:41.961Z,21.35
2023-05-15T10:24:09.817Z,21.17
2023-05-15T10:26:40.792Z,19.45
2023-05-15T10:29:11.070Z,13.57
2023-05-15T10:31:39.574Z,19.90
2023-05-15T10:34:07.570Z,19.10
2023-05-15T10:36:37.622Z,23.27
2023-05-15T10:39:07.393Z,23.33
2023-05-15T10:41:39.767Z,16.88
2023-05-15T10:44:07.221Z,14.70
2023-05-15T10:46:36.142Z,19.38
2023-05-15T10:49:04.404Z,23.60
2023-05-15T10:51:36.956Z,15.68
2023-05-15T10:54:04.454Z,20.27
2023-05-15T10:56:37.109Z,22.13
2023-05-15T10:59:11.646Z,24.17
2023-05-15T11:01:40.064Z,17.02
2023-05-15T11:04:12.924Z,20.85
2023-05-15T11:06:50.821Z,20.98
2023-05-15T11:09:21.803Z,20.52
2023-05-15T11:11:51.880Z,23.55
2023-05-15T11:14:19.280Z,18.58
2023-05-15T11:16:59.812Z,14.55
2023-05-15T11:19:31.398Z,22.60
2023-05-15T11:22:01.285Z,17.73
2023-05-15T11:24:46.802Z,25.48
2023-05-15T11:27:18.349Z,23.98
2023-05-15T11:30:03.739Z,25.58
2023-05-15T11:32:50.593Z,14.75
2023-05-15T11:35:30.694Z,21.80
2023-05-15T11:37:59.977Z,20.70
2023-05-15T11:40:32.060Z,21.90
2023-05-15T11:43:07.398Z,22.50
2023-05-15T11:45:37.562Z,26.13
2023-05-15T11:48:07.638Z,12.02
2023-05-15T11:50:35.788Z,24.17
2023-05-15T11:53:07.709Z,13.88
2023-05-15T11:55:40.298Z,23.65
2023-05-15T11:58:13.684Z,26.38
2023-05-15T12:00:41.519Z,17.63
2023-05-15T12:03:22.172Z,66.10
2023-05-15T12:05:58.061Z,97.32
2023-05-15T12:08:32.433Z,77.82
2023-05-15T12:11:00.990Z,56.38
2023-05-15T12:13:28.135Z,42.42
2023-05-15T12:15:55.971Z,55.00
2023-05-15T12:18:23.450Z,43.13
2023-05-15T12:20:53.099Z,44.30
2023-05-15T12:23:22.508Z,41.92
2023-05-15T12:25:52.088Z,39.50
2023-05-15T12:28:19.252Z,52.95
2023-05-15T12:30:46.778Z,51.45
2023-05-15T12:33:14.874Z,48.60
2023-05-15T12:35:44.356Z,46.35
2023-05-15T12:38:16.376Z,50.95
2023-05-15T12:40:46.434Z,42.33
2023-05-15T12:43:14.370Z,40.95
2023-05-15T12:45:42.247Z,38.13
2023-05-15T12:48:16.251Z,42.25
2023-05-15T12:50:45.428Z,40.75
2023-05-15T12:53:15.679Z,38.60
2023-05-15T12:55:44.714Z,35.47
2023-05-15T12:58:13.410Z,34.65
2023-05-15T13:00:46.391Z,33.80
2023-05-15T13:03:14.595Z,38.83
2023-05-15T13:05:45.799Z,29.35
2023-05-15T13:08:17.972Z,30.75
2023-05-15T13:10:46.251Z,24.92
2023-05-15T13:13:13.825Z,29.88
2023-05-15T13:15:45.016Z,33.40
2023-05-15T13:18:14.091Z,18.10
2023-05-15T13:20:43.886Z,25.00
2023-05-15T13:23:15.019Z,33.50
2023-05-15T13:25:43.715Z,26.33
2023-05-15T13:28:11.237Z,16.27
2023-05-15T13:30:41.814Z,9.55
2023-05-15T13:33:10.571Z,17.58
2023-05-15T13:35:38.586Z,25.27
2023-05-15T13:38:05.691Z,20.17
2023-05-15T13:40:33.483Z,11.75
2023-05-15T13:43:00.574Z,13.80
2023-05-15T13:45:27.536Z,5.78
2023-05-15T13:47:55.953Z,10.38
2023-05-15T13:50:24.483Z,7.25
2023-05-15T13:52:51.710Z,9.75
2023-05-15T13:55:19.768Z,8.70
2023-05-15T13:57:48.497Z,5.68
2023-05-15T14:00:19.939Z,11.65
2023-05-15T14:02:47.086Z,9.50
2023-05-15T14:05:15.551Z,5.75
2023-05-15T14:07:42.971Z,6.35
2023-05-15T14:10:10.873Z,6.43
2023-05-15T14:12:38.435Z,6.18
2023-05-15T14:15:06.108Z,5.72
2023-05-15T14:17:33.226Z,6.53
2023-05-15T14:20:00.317Z,7.88
2023-05-15T14:22:27.337Z,6.60
2023-05-15T14:24:54.354Z,6.43
2023-05-15T14:27:21.404Z,9.10
2023-05-15T14:29:49.465Z,5.53
2023-05-15T14:32:17.097Z,4.72
2023-05-15T14:34:44.430Z,7.85
2023-05-15T14:37:11.457Z,5.20
2023-05-15T14:39:38.439Z,4.75
2023-05-15T14:42:06.349Z,6.15
2023-05-15T14:44:34.652Z,4.88
2023-05-15T14:47:08.741Z,5.75
2023-05-15T14:49:36.550Z,4.70
2023-05-15T14:52:06.475Z,4.20
2023-05-15T14:54:34.005Z,7.43
2023-05-15T14:57:00.988Z,5.03
2023-05-15T14:59:28.834Z,3.40
2023-05-15T15:01:56.103Z,4.28
2023-05-15T15:04:23.115Z,4.43
2023-05-15T15:06:50.385Z,3.67
2023-05-15T15:09:19.468Z,4.72
2023-05-15T15:11:48.103Z,5.57
2023-05-15T15:14:15.276Z,3.80
2023-05-15T15:16:44.196Z,4.50
2023-05-15T15:19:11.409Z,4.72
2023-05-15T15:21:38.470Z,3.95
2023-05-15T15:24:05.749Z,4.13
2023-05-15T15:26:33.026Z,3.75
2023-05-15T15:29:01.024Z,3.90
2023-05-15T15:31:30.299Z,3.10
2023-05-15T15:33:57.856Z,4.10
2023-05-15T15:36:25.033Z,4.25
2023-05-15T15:38:52.323Z,3.80
2023-05-15T15:41:21.548Z,3.50
2023-05-15T15:43:48.702Z,3.50
2023-05-15T15:46:15.712Z,4.65
2023-05-15T15:48:42.737Z,3.83
2023-05-15T15:51:09.777Z,3.88
2023-05-15T15:53:36.764Z,4.53
2023-05-15T15:56:03.820Z,3.65
2023-05-15T15:58:30.785Z,3.65
2023-05-15T16:00:58.194Z,3.55
2023-05-15T16:03:25.378Z,3.75
2023-05-15T16:05:52.419Z,4.10
2023-05-15T16:08:19.532Z,4.32
2023-05-15T16:10:46.759Z,3.65
2023-05-15T16:13:13.760Z,3.90
2023-05-15T16:15:40.964Z,3.60
2023-05-15T16:18:08.019Z,4.13
2023-05-15T16:20:35.364Z,4.30
2023-05-15T16:23:02.572Z,3.50
2023-05-15T16:25:29.553Z,4.00
2023-05-15T16:27:56.654Z,3.75
2023-05-15T16:30:33.768Z,3.67
2023-05-15T16:33:07.543Z,4.18
2023-05-15T16:35:36.747Z,4.35
2023-05-15T16:38:04.555Z,4.82
2023-05-15T16:40:31.511Z,4.10
2023-05-15T16:42:58.609Z,4.07
2023-05-15T16:45:25.933Z,3.78
2023-05-15T16:47:53.052Z,4.13
2023-05-15T16:50:20.620Z,3.65
2023-05-15T16:52:48.275Z,3.50
2023-05-15T16:55:17.161Z,4.20
2023-05-15T16:57:45.451Z,4.28
2023-05-15T17:00:14.128Z,3.25
2023-05-15T17:02:45.014Z,4.10
2023-05-15T17:05:12.496Z,3.47
2023-05-15T17:07:39.892Z,3.95
2023-05-15T17:10:07.930Z,3.20
2023-05-15T17:12:35.741Z,3.28
2023-05-15T17:15:03.497Z,3.70
2023-05-15T17:17:30.457Z,3.00
2023-05-15T17:20:02.373Z,3.22
2023-05-15T17:22:30.037Z,2.65
2023-05-15T17:24:57.091Z,3.30
2023-05-15T17:27:24.529Z,2.85
2023-05-15T17:29:51.883Z,3.35
2023-05-15T17:32:19.661Z,3.33
2023-05-15T17:34:47.335Z,3.08
2023-05-15T17:37:14.584Z,3.30
2023-05-15T17:39:41.892Z,2.92
2023-05-15T17:42:08.894Z,3.03
2023-05-15T17:44:36.266Z,3.13
2023-05-15T17:47:03.496Z,3.20
2023-05-15T17:49:30.665Z,2.88
2023-05-15T17:51:57.696Z,2.95
2023-05-15T17:54:24.695Z,2.95
2023-05-15T17:56:51.790Z,3.58
2023-05-15T17:59:18.752Z,3.00
2023-05-15T18:01:46.040Z,3.30
2023-05-15T18:04:13.058Z,3.15
2023-05-15T18:06:40.144Z,3.67
2023-05-15T18:09:07.791Z,2.95
2023-05-15T18:11:34.880Z,3.15
2023-05-15T18:14:02.189Z,3.17
2023-05-15T18:16:29.863Z,2.85
2023-05-15T18:18:57.096Z,2.67
2023-05-15T18:21:24.487Z,3.05
2023-05-15T18:23:51.685Z,2.90
2023-05-15T18:26:18.655Z,2.90
2023-05-15T18:28:45.908Z,2.92
2023-05-15T18:31:12.977Z,3.88
2023-05-15T18:33:40.736Z,3.45
2023-05-15T18:36:07.760Z,3.88
2023-05-15T18:38:34.897Z,3.40
2023-05-15T18:41:01.880Z,3.13
2023-05-15T18:43:28.849Z,3.22
2023-05-15T18:45:55.904Z,2.97
2023-05-15T18:48:22.917Z,2.70
2023-05-15T18:50:51.711Z,3.10
2023-05-15T18:53:18.848Z,3.70
2023-05-15T18:55:46.100Z,2.97
2023-05-15T18:58:13.045Z,3.05
2023-05-15T19:00:42.906Z,2.75
2023-05-15T19:03:10.133Z,3.30
2023-05-15T19:05:37.228Z,3.05
2023-05-15T19:08:04.419Z,3.22
2023-05-15T19:10:31.706Z,3.63
2023-05-15T19:12:58.782Z,2.90
2023-05-15T19:15:26.652Z,3.00
2023-05-15T19:17:53.682Z,3.13
2023-05-15T19:20:21.229Z,2.85
2023-05-15T19:22:48.254Z,3.08
2023-05-15T19:25:15.345Z,3.15
2023-05-15T19:27:42.451Z,2.85
2023-05-15T19:30:10.164Z,3.10
2023-05-15T19:32:37.962Z,3.38
2023-05-15T19:35:05.987Z,2.97
2023-05-15T19:37:32.959Z,3.08
2023-05-15T19:39:59.962Z,2.63
2023-05-15T19:42:27.092Z,3.80
2023-05-15T19:44:54.309Z,2.95
2023-05-15T19:47:21.369Z,3.30
2023-05-15T19:49:48.445Z,3.33
2023-05-15T19:52:16.398Z,2.75
2023-05-15T19:54:44.277Z,3.45
2023-05-15T19:57:11.329Z,3.65
2023-05-15T19:59:38.592Z,3.25
2023-05-15T20:02:09.191Z,2.97
2023-05-15T20:04:36.969Z,2.88
2023-05-15T20:07:04.413Z,3.33
2023-05-15T20:09:31.524Z,2.70
2023-05-15T20:11:58.651Z,3.30
2023-05-15T20:14:25.781Z,3.25
2023-05-15T20:16:52.739Z,3.65
2023-05-15T20:19:22.140Z,3.00
2023-05-15T20:21:49.940Z,3.30
2023-05-15T20:24:17.874Z,2.83
2023-05-15T20:26:45.291Z,2.65
2023-05-15T20:29:12.323Z,2.60
2023-05-15T20:31:40.427Z,3.58
2023-05-15T20:34:08.346Z,2.72
2023-05-15T20:36:38.787Z,2.67
2023-05-15T20:39:07.379Z,3.25
2023-05-15T20:41:35.676Z,2.97
2023-05-15T20:44:03.351Z,4.85
2023-05-15T20:46:30.719Z,4.00
2023-05-15T20:48:57.978Z,4.18
2023-05-15T20:51:25.217Z,4.82
2023-05-15T20:53:52.376Z,6.05
2023-05-15T20:56:19.387Z,6.43
2023-05-15T20:58:46.428Z,7.03
2023-05-15T21:01:13.855Z,7.55
2023-05-15T21:03:41.197Z,6.65
2023-05-15T21:06:09.065Z,7.68
2023-05-15T21:08:36.074Z,7.47
2023-05-15T21:11:03.054Z,7.28
2023-05-15T21:13:29.965Z,8.05
2023-05-15T21:15:56.945Z,7.38
2023-05-15T21:18:23.924Z,6.55
2023-05-15T21:20:51.728Z,6.00
2023-05-15T21:23:20.980Z,5.93
2023-05-15T21:25:48.277Z,5.30
2023-05-15T21:28:20.832Z,5.72
2023-05-15T21:30:47.850Z,4.55
2023-05-15T21:33:14.955Z,5.22
2023-05-15T21:35:41.996Z,5.22
2023-05-15T21:38:09.132Z,4.32
2023-05-15T21:40:36.842Z,3.97
2023-05-15T21:43:03.784Z,5.07
2023-05-15T21:45:30.891Z,4.72
2023-05-15T21:47:57.968Z,4.10
2023-05-15T21:50:28.139Z,5.97
2023-05-15T21:52:55.342Z,4.28
2023-05-15T21:55:22.353Z,4.63
2023-05-15T21:57:52.493Z,3.85
2023-05-15T22:00:25.265Z,4.22
2023-05-15T22:02:55.209Z,4.13
2023-05-15T22:05:22.494Z,4.40
2023-05-15T22:07:49.613Z,3.97
2023-05-15T22:10:16.789Z,3.60
2023-05-15T22:12:44.416Z,3.83
2023-05-15T22:15:14.435Z,3.28
2023-05-15T22:17:41.801Z,3.60
2023-05-15T22:20:13.305Z,3.58
2023-05-15T22:22:42.788Z,3.38
2023-05-15T22:25:10.137Z,3.47
2023-05-15T22:27:37.643Z,3.17
2023-05-15T22:30:05.907Z,3.42
2023-05-15T22:32:33.438Z,3.88
2023-05-15T22:35:00.741Z,3.50
2023-05-15T22:37:27.705Z,3.47
2023-05-15T22:39:54.726Z,3.53
2023-05-15T22:42:21.782Z,3.40
2023-05-15T22:44:48.715Z,3.08
2023-05-15T22:47:15.649Z,3.00
2023-05-15T22:49:42.573Z,3.22
2023-05-15T22:52:11.089Z,3.22
2023-05-15T22:54:39.136Z,3.20
2023-05-15T22:57:06.068Z,2.95
2023-05-15T22:59:33.536Z,3.17
2023-05-15T23:02:00.794Z,3.05
2023-05-15T23:04:27.988Z,3.00
2023-05-15T23:06:55.765Z,2.90
2023-05-15T23:09:22.812Z,3.08
2023-05-15T23:11:49.704Z,2.72
2023-05-15T23:14:17.578Z,3.10
2023-05-15T23:16:44.732Z,3.10
2023-05-15T23:19:11.731Z,2.45
2023-05-15T23:21:38.758Z,3.67
2023-05-15T23:24:06.152Z,3.25
2023-05-15T23:26:33.086Z,3.05
2023-05-15T23:29:00.109Z,3.05
2023-05-15T23:31:28.109Z,2.78
2023-05-15T23:33:55.184Z,2.42
2023-05-15T23:36:22.091Z,3.25
2023-05-15T23:38:49.086Z,3.20
2023-05-15T23:41:16.606Z,2.50
2023-05-15T23:43:43.627Z,2.90
2023-05-15T23:46:10.721Z,3.42
2023-05-15T23:48:37.719Z,2.85
2023-05-15T23:51:04.793Z,2.95
2023-05-15T23:53:31.872Z,2.78
2023-05-15T23:55:58.785Z,2.33
2023-05-15T23:58:25.710Z,2.10
